Latest Weather Observations for Mackay Airport

IDQ60801

Issued at 1:35 pm EST Friday 25 April 2014 (issued every 30 minutes, with the page automatically refreshed every 10 minutes)

About weather observations | Map of weather stations | Latest weather observations for QLD | Other Formats
Station Details ID: 033045 Name: MACKAY AERO Lat: -21.17 Lon: 149.18 Height: 4.7 m
Data from the previous 72 hours. | See also: Recent months at Mackay Airport
Date/Time
EST
Temp
°C
App
Temp
°C
Dew
Point
Rel
Hum
%
Delta-T
°C
Wind Press
QNH
hPa
Press
MSL
hPa
Rain
since 9 am
mm
Dir
 
Spd
km/h
Gust
km/h
Spd
kts
Gust
kts
25/01:30pm 26.6 26.6 22.4 78 2.8 SE 26 32 14 17 1013.2 - 0.0
25/01:00pm 26.3 26.7 22.4 79 2.6 ESE 24 30 13 16 1013.5 - 0.0
25/12:30pm 27.2 27.7 22.6 76 3.1 ESE 24 30 13 16 1013.9 - 0.0
25/12:00pm 26.8 27.0 22.0 75 3.2 ESE 24 28 13 15 1014.3 1014.3 0.0
25/11:30am 26.8 27.1 21.5 72 3.5 SE 22 28 12 15 1014.7 - 0.0
25/11:00am 27.2 28.3 23.0 78 2.9 SE 22 28 12 15 1015.4 - 0.0
25/10:30am 26.6 27.5 22.7 79 2.6 SE 22 28 12 15 1015.7 - 0.0
25/10:00am 26.2 28.2 22.9 82 2.2 SE 17 22 9 12 1015.9 - 0.0
25/09:30am 25.5 26.7 22.2 82 2.2 SSE 19 26 10 14 1016.0 - 0.0
25/09:00am 24.6 26.5 22.1 86 1.7 S 15 20 8 11 1015.9 1015.9 25.4
25/08:30am 23.8 26.5 22.1 90 1.1 S 11 15 6 8 1015.8 - 25.4
25/08:00am 22.3 25.3 21.3 94 0.7 SW 7 11 4 6 1015.9 - 25.4
25/07:30am 21.5 23.9 20.8 96 0.5 SW 9 11 5 6 1015.6 - 25.4
25/07:00am 21.1 23.8 20.6 97 0.3 SW 7 9 4 5 1015.3 - 25.4
25/06:30am 20.8 22.6 20.3 97 0.3 SW 11 13 6 7 1014.8 - 25.4
25/06:00am 20.7 22.4 20.2 97 0.3 SSW 11 13 6 7 1014.3 1014.3 25.4
25/05:30am 20.8 23.0 20.3 97 0.3 S 9 13 5 7 1013.9 - 25.4
25/05:00am 20.7 23.2 20.2 97 0.3 S 7 9 4 5 1013.3 - 25.4
25/04:30am 20.7 23.2 20.2 97 0.3 SSW 7 9 4 5 1013.3 - 25.4
25/04:00am 20.6 23.2 20.1 97 0.3 SSE 6 7 3 4 1013.3 - 25.4
25/03:30am 20.7 23.2 20.2 97 0.3 SSE 7 9 4 5 1013.3 - 25.4
25/03:00am 20.7 23.4 20.2 97 0.3 SSE 6 6 3 3 1013.3 1013.3 25.4
25/02:30am 20.7 22.8 20.2 97 0.3 SSE 9 15 5 8 1013.4 - 25.4
25/02:00am 20.7 24.5 20.2 97 0.3 CALM 0 6 0 3 1013.6 - 25.2
25/01:30am 20.7 23.2 20.2 97 0.3 S 7 7 4 4 1013.8 - 25.2
25/01:00am 20.7 23.2 20.2 97 0.3 WNW 7 9 4 5 1014.1 - 25.2
25/12:30am 20.6 23.0 20.1 97 0.3 WNW 7 13 4 7 1014.1 - 25.2
25/12:00am 20.6 21.9 20.1 97 0.3 SW 13 17 7 9 1014.3 1014.3 25.2
 
Date/Time
EST
Temp
°C
App
Temp
°C
Dew
Point
Rel
Hum
%
Delta-T
°C
Wind Press
QNH
hPa
Press
MSL
hPa
Rain
since 9 am
mm
Dir
 
Spd
km/h
Gust
km/h
Spd
kts
Gust
kts
24/11:30pm 20.5 21.7 20.0 97 0.3 WSW 13 17 7 9 1014.8 - 25.2
24/11:00pm 20.7 22.7 20.0 96 0.4 W 9 13 5 7 1015.1 - 25.2
24/10:30pm 20.8 23.2 20.1 96 0.4 SW 7 13 4 7 1015.4 - 25.2
24/10:00pm 20.8 21.7 20.1 96 0.4 SSW 15 19 8 10 1015.6 - 25.2
24/09:30pm 20.6 20.1 19.9 96 0.4 S 22 26 12 14 1015.7 - 25.2
24/09:00pm 20.7 21.2 20.0 96 0.4 SSW 17 19 9 10 1015.9 1015.9 25.2
24/08:30pm 20.7 20.9 20.2 97 0.3 SSW 19 26 10 14 1015.7 - 25.0
24/08:00pm 21.1 21.2 20.4 96 0.5 S 20 26 11 14 1015.6 - 24.8
24/07:30pm 21.2 21.1 20.7 97 0.3 SSW 22 28 12 15 1015.2 - 24.8
24/07:00pm 21.2 21.6 20.7 97 0.3 S 19 24 10 13 1014.6 - 24.8
24/06:30pm 21.5 22.5 21.0 97 0.3 S 17 22 9 12 1014.2 - 24.8
24/06:00pm 21.8 22.9 21.3 97 0.3 S 17 20 9 11 1013.7 1013.7 24.8
24/05:50pm 21.5 21.9 21.0 97 0.3 SSW 20 24 11 13 1013.7 - 24.6
24/05:34pm 21.6 23.3 20.9 96 0.5 SSW 13 17 7 9 1013.6 - 24.6
24/05:30pm 21.7 23.4 21.0 96 0.5 SSW 13 17 7 9 1013.5 - 24.4
24/05:00pm 21.9 24.5 21.2 96 0.5 WSW 9 11 5 6 1013.2 - 23.0
24/04:30pm 22.0 24.7 21.3 96 0.5 E 9 13 5 7 1012.8 - 21.6
24/04:00pm 22.3 25.5 21.6 96 0.5 E 7 15 4 8 1012.6 - 19.4
24/03:30pm 22.7 24.6 22.0 96 0.5 SE 15 20 8 11 1012.6 - 17.8
24/03:00pm 22.9 26.6 22.2 96 0.5 ESE 6 15 3 8 1012.6 1012.6 17.4
24/02:30pm 22.8 24.7 22.1 96 0.5 ESE 15 17 8 9 1012.6 - 15.4
24/02:19pm 22.9 25.3 22.2 96 0.5 E 13 19 7 10 1012.7 - 14.6
24/02:11pm 23.0 25.4 22.3 96 0.5 ESE 13 17 7 9 1012.7 - 14.0
24/02:00pm 23.0 25.0 22.3 96 0.5 ESE 15 19 8 10 1012.8 - 14.0
24/01:35pm 23.2 24.1 22.0 93 0.8 E 20 26 11 14 1013.0 - 13.0
24/01:30pm 23.4 24.5 22.0 92 0.9 E 19 22 10 12 1013.0 - 12.8
24/01:00pm 24.4 27.0 22.7 90 1.1 S 13 17 7 9 1013.3 - 12.4
24/12:30pm 24.1 26.4 22.7 92 0.9 SSW 15 19 8 10 1013.6 - 12.4
24/12:00pm 23.6 26.0 22.2 92 0.9 S 13 17 7 9 1013.8 1013.8 12.4
24/11:30am 23.4 26.3 22.4 94 0.7 S 11 15 6 8 1014.3 - 12.4
24/11:28am 23.4 26.3 22.4 94 0.7 SSW 11 15 6 8 1014.3 - 12.4
24/11:00am 22.9 26.4 22.2 96 0.5 SSW 7 13 4 7 1014.8 - 12.4
24/10:43am 22.7 24.9 21.9 95 0.5 SSE 13 17 7 9 1015.3 - 11.0
24/10:30am 23.1 25.2 22.4 96 0.5 SSW 15 20 8 11 1015.1 - 10.2
24/10:18am 23.2 24.7 22.7 97 0.3 SSW 19 22 10 12 1015.1 - 10.2
24/10:00am 22.6 24.2 22.1 97 0.3 SSW 17 26 9 14 1015.2 - 10.0
24/09:50am 22.6 23.8 22.1 97 0.3 SSW 19 26 10 14 1015.4 - 9.2
24/09:48am 22.6 23.8 22.1 97 0.3 SSW 19 24 10 13 1015.4 - 9.0
24/09:30am 22.3 23.2 21.6 96 0.5 S 19 28 10 15 1015.5 - 8.4
24/09:05am 22.3 24.1 21.8 97 0.3 SSW 15 20 8 11 1015.6 - 0.8
24/09:00am 22.3 23.6 21.6 96 0.5 SSW 17 20 9 11 1015.4 1015.4 19.0
24/08:30am 22.7 25.0 22.0 96 0.5 S 13 19 7 10 1015.2 - 18.6
24/08:27am 22.9 25.3 22.2 96 0.5 S 13 19 7 10 1015.3 - 18.6
24/08:00am 22.9 25.2 22.1 95 0.5 SSE 13 19 7 10 1014.7 - 18.2
24/07:53am 23.1 25.1 22.3 95 0.5 SE 15 19 8 10 1014.8 - 17.4
24/07:30am 23.4 24.5 22.4 94 0.7 SE 20 28 11 15 1014.5 - 16.4
24/07:00am 23.2 25.0 22.5 96 0.5 ESE 17 22 9 12 1014.1 - 16.4
24/06:30am 22.8 25.3 22.5 98 0.2 ESE 13 15 7 8 1014.0 - 16.4
24/06:27am 22.7 25.6 22.4 98 0.2 ESE 11 15 6 8 1014.0 - 16.4
24/06:00am 22.4 23.4 22.1 98 0.2 E 20 26 11 14 1014.0 1014.0 16.0
24/05:54am 22.4 23.6 22.1 98 0.2 E 19 26 10 14 1013.9 - 15.6
24/05:43am 21.7 24.4 21.4 98 0.2 S 9 13 5 7 1013.5 - 15.4
24/05:30am 21.6 24.3 21.3 98 0.2 S 9 13 5 7 1013.7 - 15.4
24/05:23am 21.6 24.3 21.3 98 0.2 S 9 13 5 7 1013.7 - 15.2
24/05:00am 21.5 24.5 21.2 98 0.2 S 7 11 4 6 1013.7 - 15.0
24/04:30am 21.3 23.4 21.0 98 0.2 S 11 13 6 7 1013.4 - 14.8
24/04:00am 21.3 22.7 21.0 98 0.2 S 15 17 8 9 1013.4 - 14.6
24/03:30am 21.3 22.7 21.0 98 0.2 SSW 15 19 8 10 1013.9 - 14.4
24/03:00am 21.4 22.7 20.9 97 0.3 SSW 15 20 8 11 1013.9 1013.9 14.2
24/02:30am 21.5 23.0 21.2 98 0.2 S 15 19 8 10 1014.1 - 14.2
24/02:00am 21.4 23.2 21.1 98 0.2 S 13 17 7 9 1014.0 - 14.2
24/01:30am 21.3 22.7 21.0 98 0.2 S 15 17 8 9 1014.2 - 14.2
24/01:16am 21.3 22.6 20.8 97 0.3 SSW 15 19 8 10 1014.7 - 14.0
24/01:00am 21.4 22.7 20.9 97 0.3 S 15 19 8 10 1014.7 - 14.0
24/12:57am 21.4 22.7 20.9 97 0.3 S 15 19 8 10 1014.8 - 14.0
24/12:30am 21.6 22.7 21.3 98 0.2 S 17 20 9 11 1014.9 - 14.0
24/12:00am 21.6 23.1 21.3 98 0.2 SSE 15 20 8 11 1015.0 1015.0 14.0
 
Date/Time
EST
Temp
°C
App
Temp
°C
Dew
Point
Rel
Hum
%
Delta-T
°C
Wind Press
QNH
hPa
Press
MSL
hPa
Rain
since 9 am
mm
Dir
 
Spd
km/h
Gust
km/h
Spd
kts
Gust
kts
23/11:30pm 21.7 22.9 21.4 98 0.2 SSE 17 22 9 12 1015.1 - 13.8
23/11:00pm 21.8 23.0 21.5 98 0.2 S 17 22 9 12 1015.6 - 12.8
23/10:38pm 21.9 23.9 21.6 98 0.2 S 13 19 7 10 1016.1 - 12.2
23/10:30pm 21.9 23.6 21.6 98 0.2 S 15 24 8 13 1016.1 - 12.0
23/10:00pm 22.0 24.4 21.5 97 0.3 SSE 11 15 6 8 1016.3 - 6.8
23/09:33pm 22.1 24.1 21.6 97 0.3 SSW 13 17 7 9 1016.4 - 4.0
23/09:30pm 22.1 23.8 21.6 97 0.3 SSW 15 17 8 9 1016.3 - 4.0
23/09:00pm 22.0 23.2 21.5 97 0.3 S 17 22 9 12 1016.1 1016.1 3.8
23/08:30pm 22.1 23.7 21.4 96 0.5 S 15 19 8 10 1016.2 - 3.4
23/08:13pm 22.2 23.4 21.5 96 0.5 S 17 20 9 11 1016.0 - 3.4
23/08:00pm 22.4 23.7 21.6 95 0.5 S 17 20 9 11 1015.6 - 3.4
23/07:58pm 22.4 23.7 21.6 95 0.5 S 17 20 9 11 1015.5 - 3.4
23/07:30pm 22.7 24.1 21.9 95 0.5 S 17 22 9 12 1015.5 - 3.0
23/07:00pm 22.4 23.7 21.7 96 0.5 S 17 24 9 13 1014.7 - 2.8
23/06:30pm 22.2 23.1 21.5 96 0.5 S 19 22 10 12 1014.7 - 2.8
23/06:00pm 22.2 23.4 21.4 95 0.5 S 17 20 9 11 1014.1 1014.1 2.8
23/05:30pm 22.4 23.3 21.6 95 0.5 SSE 19 30 10 16 1013.6 - 2.8
23/05:00pm 22.0 23.1 21.2 95 0.5 SSE 17 22 9 12 1013.6 - 2.6
23/04:30pm 22.1 22.6 20.9 93 0.8 SSE 19 22 10 12 1013.5 - 2.4
23/04:00pm 22.3 23.6 20.9 92 0.9 S 15 22 8 12 1014.1 - 2.4
23/03:30pm 22.4 23.5 21.2 93 0.8 S 17 24 9 13 1013.9 - 2.2
23/03:00pm 22.2 22.6 21.0 93 0.8 S 20 30 11 16 1013.7 1013.7 2.2
23/02:30pm 22.4 22.0 21.0 92 0.9 S 24 32 13 17 1013.7 - 1.8
23/02:00pm 22.7 23.0 21.5 93 0.8 S 22 32 12 17 1013.9 - 1.6
23/01:30pm 22.9 23.6 21.5 92 0.9 S 20 24 11 13 1013.7 - 1.0
23/01:00pm 23.2 23.5 21.6 91 1.1 S 22 32 12 17 1014.2 - 0.8
23/12:30pm 23.7 25.2 22.0 90 1.1 S 17 24 9 13 1014.7 - 0.2
23/12:00pm 24.1 24.7 21.4 85 1.8 S 20 26 11 14 1015.5 1015.5 0.0
23/11:30am 25.0 25.8 21.7 82 2.2 SSE 20 28 11 15 1015.7 - 0.0
23/11:00am 25.6 25.7 21.9 80 2.5 SSE 24 32 13 17 1015.8 - 0.0
23/10:30am 25.3 24.9 21.6 80 2.5 SE 26 32 14 17 1016.0 - 0.0
23/10:00am 25.4 25.3 21.5 79 2.6 SSE 24 32 13 17 1016.0 - 0.0
23/09:30am 24.8 25.0 21.3 81 2.3 S 22 30 12 16 1016.3 - 0.0
23/09:00am 25.0 25.5 21.9 83 2.1 S 22 30 12 16 1016.1 1016.1 2.0
23/08:30am 23.5 24.5 21.0 86 1.6 S 17 24 9 13 1016.1 - 2.0
23/08:00am 23.3 23.9 21.0 87 1.5 S 19 26 10 14 1015.9 - 2.0
23/07:30am 22.7 23.4 20.4 87 1.5 SSW 17 22 9 12 1015.8 - 2.0
23/07:00am 23.5 24.4 21.6 89 1.3 SE 19 24 10 13 1015.3 - 2.0
23/06:30am 22.6 25.0 20.9 90 1.1 SSE 9 15 5 8 1015.3 - 2.0
23/06:00am 22.5 24.5 20.8 90 1.1 S 11 13 6 7 1015.1 1015.1 2.0
23/05:30am 22.4 24.5 20.9 91 1.0 SSW 11 15 6 8 1015.2 - 1.8
23/05:00am 22.4 24.8 20.9 91 1.0 S 9 11 5 6 1015.2 - 1.8
23/04:30am 22.3 23.9 20.8 91 1.0 S 13 19 7 10 1015.3 - 1.8
23/04:00am 22.1 22.9 20.6 91 1.0 SSW 17 19 9 10 1015.2 - 1.8
23/03:30am 22.1 22.9 20.6 91 1.0 S 17 19 9 10 1015.0 - 1.8
23/03:00am 21.8 23.6 20.4 92 0.9 SSW 11 13 6 7 1015.4 1015.4 1.8
23/02:30am 22.0 23.9 20.6 92 0.9 SSW 11 15 6 8 1015.6 - 1.8
23/02:00am 22.0 23.9 20.5 91 1.0 SSW 11 13 6 7 1015.9 - 1.8
23/01:30am 21.9 24.1 20.5 92 0.9 S 9 13 5 7 1016.0 - 1.8
23/01:00am 22.1 24.4 20.6 91 1.0 SW 9 13 5 7 1015.9 - 1.8
23/12:30am 22.4 25.0 20.5 89 1.2 S 7 9 4 5 1016.2 - 1.6
23/12:00am 23.1 25.0 20.6 86 1.6 S 11 15 6 8 1016.3 1016.3 1.4
 
Date/Time
EST
Temp
°C
App
Temp
°C
Dew
Point
Rel
Hum
%
Delta-T
°C
Wind Press
QNH
hPa
Press
MSL
hPa
Rain
since 9 am
mm
Dir
 
Spd
km/h
Gust
km/h
Spd
kts
Gust
kts
22/11:30pm 22.7 24.7 20.8 89 1.2 S 11 13 6 7 1016.7 - 1.4
22/11:00pm 22.7 24.3 20.8 89 1.2 S 13 15 7 8 1017.0 - 1.4
22/10:30pm 23.1 25.2 21.0 88 1.4 S 11 15 6 8 1017.3 - 1.4
22/10:09pm 22.8 24.4 20.7 88 1.4 SSW 13 17 7 9 1017.3 - 1.4
22/10:00pm 23.1 24.7 20.8 87 1.5 S 13 19 7 10 1017.4 - 1.4
22/09:47pm 23.4 23.9 20.9 86 1.6 E 19 32 10 17 1017.5 - 0.6
22/09:30pm 23.7 25.3 20.0 80 2.4 S 11 15 6 8 1017.5 - 0.0
22/09:00pm 25.3 25.9 20.3 74 3.3 SE 17 22 9 12 1017.7 1017.7 0.0
22/08:30pm 25.3 25.9 20.3 74 3.3 SE 17 22 9 12 1017.6 - 0.0
22/08:00pm 25.3 25.5 20.1 73 3.4 ESE 19 22 10 12 1017.4 - 0.0
22/07:30pm 25.2 25.2 19.8 72 3.5 ESE 19 24 10 13 1017.1 - 0.0
22/07:00pm 25.3 24.9 20.1 73 3.4 ESE 22 28 12 15 1016.5 - 0.0
22/06:30pm 25.3 25.7 19.9 72 3.5 E 17 22 9 12 1016.5 - 0.0
22/06:00pm 25.2 26.0 19.8 72 3.5 E 15 19 8 10 1016.5 1016.5 0.0
22/05:30pm 25.6 26.2 19.5 69 3.9 E 15 20 8 11 1016.3 - 0.0
22/05:00pm 25.8 26.0 19.4 67 4.1 E 17 22 9 12 1016.0 - 0.0
22/04:30pm 25.9 26.0 19.1 66 4.4 ESE 17 20 9 11 1015.8 - 0.0
22/04:00pm 26.2 25.5 18.3 61 5.0 ESE 19 22 10 12 1015.9 - 0.0
22/03:30pm 27.2 26.0 18.5 59 5.6 ESE 22 28 12 15 1015.8 - 0.0
22/03:00pm 26.6 25.1 18.5 61 5.2 SE 24 30 13 16 1015.8 1015.8 0.0
22/02:30pm 26.8 25.9 19.9 66 4.5 SE 24 32 13 17 1016.0 - 0.0
22/02:00pm 26.9 25.8 20.3 67 4.3 SE 26 32 14 17 1016.2 - 0.0

Other Formats:

Comma delimited format used in spreadsheet applications
http://www.bom.gov.au/fwo/IDQ60801/IDQ60801.95367.axf

JavaScript Object Notation format (JSON) in row-major order
http://www.bom.gov.au/fwo/IDQ60801/IDQ60801.95367.json